Home > Products > Valid Products > TAF

000
FTUS44 KMEG 291740
TAFJBR
TAF
KJBR 291740Z 2918/3018 15008KT P6SM VCTS SCT025 BKN035CB
     FM300100 18008KT P6SM SCT030 BKN250
     FM300500 18010KT P6SM VCTS BKN035CB OVC150
      TEMPO 3008/3012 3SM -TSRA OVC015CB
     FM301200 21010KT P6SM VCTS BKN015 OVC025CB=



000
FTUS44 KMEG 291740
TAFMEM
TAF
KMEM 291740Z 2918/3018 19010KT P6SM VCTS SCT025 BKN035CB
     FM300100 19006KT P6SM SCT040 BKN150
     FM300700 18010KT P6SM VCTS BKN025CB OVC150
      TEMPO 3009/3013 5SM -TSRA BKN008CB
     FM301300 20012KT P6SM VCTS BKN008 OVC015CB=



000
FTUS44 KMEG 291740
TAFMKL
TAF
KMKL 291740Z 2918/3018 19006KT P6SM BKN015 OVC025
     FM292000 19007KT P6SM VCTS SCT025 BKN035CB
     FM300100 16007KT P6SM BKN050 BKN250
     FM300900 17006KT P6SM SCT006 OVC015
      TEMPO 3010/3014 OVC006
     FM301400 19010KT P6SM VCTS SCT008 OVC015CB=



000
FTUS44 KMEG 291740
TAFTUP
TAF
KTUP 291740Z 2918/3018 19006KT P6SM VCTS SCT025 BKN035CB
     FM300100 18005KT P6SM SCT050 SCT250
     FM301000 17006KT P6SM SCT006 OVC015
      TEMPO 3010/3014 OVC006
     FM301600 19010KT P6SM VCTS SCT015 BKN025CB=



000
FTUS44 KMEG 291503 AAA
TAFTUP
TAF AMD
KTUP 291503Z 2915/3012 18006KT P6SM OVC011
     FM291700 18008KT P6SM BKN015 OVC025
     FM291900 18008KT P6SM VCTS BKN035CB BKN250
     FM300100 18005KT P6SM BKN250
     FM300800 19005KT P6SM OVC006=



000
FTUS44 KMEG 291503 AAA
TAFTUP
TAF AMD
KTUP 291503Z 2915/3012 18006KT P6SM OVC011
     FM291700 18008KT P6SM BKN015 OVC025
     FM291900 18008KT P6SM VCTS BKN035CB BKN250
     FM300100 18005KT P6SM BKN250
     FM300800 19005KT P6SM OVC006=



000
FTUS44 KMEG 291502 AAA
TAFMKL
TAF AMD
KMKL 291502Z 2915/3012 17006KT P6SM OVC008
     FM291800 18007KT P6SM BKN015 OVC025
     FM292000 18007KT P6SM VCTS BKN025CB BKN250
     FM300100 18003KT P6SM BKN050 BKN250
     FM300900 18004KT P6SM OVC006=



000
FTUS44 KMEG 291500 AAB
TAFMEM
TAF AMD
KMEM 291500Z 2915/3012 17008KT P6SM SCT015 BKN035
     FM291900 19010KT P6SM VCTS BKN035CB BKN250
     FM300100 19006KT P6SM BKN050 OVC100
     FM300400 19006KT 6SM -TSRA OVC035CB
      TEMPO 3004/3007 3SM -TSRA OVC025CB
     FM300700 18005KT P6SM OVC015=



000
FTUS44 KMEG 291500 AAB
TAFMEM
TAF AMD
KMEM 291500Z 2915/3012 17008KT P6SM SCT015 BKN035
     FM291900 19010KT P6SM VCTS BKN035CB BKN250
     FM300100 19006KT P6SM BKN050 OVC100
     FM300400 19006KT 6SM -TSRA OVC035CB
      TEMPO 3004/3007 3SM -TSRA OVC025CB
     FM300700 18005KT P6SM OVC015=



000
FTUS44 KMEG 291423 AAA
TAFMEM
TAF AMD
KMEM 291423Z 2914/3012 17006KT P6SM BKN012 BKN150
     FM291700 18007KT P6SM SCT012 BKN035
     FM291900 19008KT P6SM VCTS BKN035CB BKN250
     FM300100 19006KT P6SM BKN050 OVC100
     FM300400 19006KT 6SM -TSRA OVC035CB
      TEMPO 3004/3007 3SM -TSRA OVC025CB
     FM300700 18005KT P6SM OVC015=



000
FTUS44 KMEG 291130
TAFJBR
TAF
KJBR 291130Z 2912/3012 16006KT P6SM BKN250
     FM291400 16006KT P6SM SCT035 BKN250
     FM292000 18010KT P6SM VCTS BKN035CB BKN250
     FM300100 20006KT P6SM BKN050 OVC250
     FM300300 20005KT 6SM -TSRA BR OVC035CB
      TEMPO 3003/3007 3SM -TSRA OVC025CB
     FM300700 21003KT P6SM VCSH OVC025=



000
FTUS44 KMEG 291130
TAFMEM
TAF
KMEM 291130Z 2912/3012 15003KT P6SM BKN004 BKN250
     FM291300 16006KT P6SM OVC006
     FM291600 18007KT P6SM SCT006 OVC035
     FM291900 19008KT P6SM VCTS BKN035CB BKN250
     FM300100 19006KT P6SM BKN050 OVC100
     FM300400 19006KT 6SM -TSRA OVC035CB
      TEMPO 3004/3007 3SM -TSRA OVC025CB
     FM300700 18005KT P6SM OVC015=



000
FTUS44 KMEG 291130
TAFMKL
TAF
KMKL 291130Z 2912/3012 16005KT P6SM OVC006
      TEMPO 2912/2913 OVC004
     FM291500 18006KT P6SM BKN035 BKN250
     FM292000 18006KT P6SM VCTS BKN035CB BKN250
     FM300100 18003KT P6SM BKN050 BKN250
     FM300900 18004KT P6SM OVC006=



000
FTUS44 KMEG 291130
TAFTUP
TAF
KTUP 291130Z 2912/3012 20005KT P6SM OVC006
      TEMPO 2912/2913 3SM BR OVC003
     FM291300 19008KT P6SM OVC006
     FM291700 18008KT P6SM VCTS BKN035CB BKN250
     FM300100 18005KT P6SM BKN250
     FM300800 19005KT P6SM OVC006=



000
FTUS44 KMEG 290858 AAA
TAFMEM
TAF AMD
KMEM 290858Z 2909/3006 16006KT P6SM SCT008 BKN250
      TEMPO 2909/2913 OVC008
     FM291500 19006KT P6SM SCT008 OVC070
     FM291600 17007KT P6SM VCTS BKN035CB
     FM300000 16008KT P6SM OVC250=



000
FTUS44 KMEG 290837 AAA
TAFMKL
TAF AMD
KMKL 290837Z 2909/3006 18003KT P6SM BKN250
     FM290930 00000KT 6SM BR BKN010
      TEMPO 2910/2913 3SM BR OVC006
     FM291300 00000KT P6SM OVC006
     FM291500 18005KT P6SM SCT005 OVC035
     FM291600 20006KT P6SM VCTS BKN035CB
     FM300000 VRB03KT P6SM BKN250=



000
FTUS44 KMEG 290834 AAA
TAFTUP
TAF AMD
KTUP 290834Z 2909/3006 18004KT 6SM BR OVC010
      TEMPO 2909/2913 3SM BR OVC006
     FM291300 16005KT P6SM OVC006
     FM291600 16005KT P6SM SCT005 BKN250
     FM291700 17007KT P6SM VCTS BKN035CB
     FM300000 18005KT P6SM BKN250=



000
FTUS44 KMEG 290834 AAA
TAFTUP
TAF AMD
KTUP 290834Z 2909/3006 18004KT 6SM BR OVC010
      TEMPO 2909/2913 3SM BR OVC006
     FM291300 16005KT P6SM OVC006
     FM291600 16005KT P6SM SCT005 BKN250
     FM291700 17007KT P6SM VCTS BKN035CB
     FM300000 18005KT P6SM BKN250=



000
FTUS44 KMEG 290530
TAFJBR
TAF
KJBR 290530Z 2906/3006 16006KT P6SM SCT007 BKN250
      TEMPO 2909/2913 5SM BR OVC007
     FM291400 19006KT P6SM SCT007 BKN250
     FM291600 20008KT P6SM VCTS BKN035CB
     FM300000 17006KT P6SM OVC250=



000
FTUS44 KMEG 290530
TAFTUP
TAF
KTUP 290530Z 2906/3006 10005KT P6SM BKN250
     FM290800 18004KT 5SM BR OVC008
      TEMPO 2909/2913 3SM BR OVC005
     FM291400 16005KT P6SM SCT005 BKN250
     FM291700 17007KT P6SM VCTS BKN035CB
     FM300000 18005KT P6SM BKN250=



000
FTUS44 KMEG 290530
TAFMKL
TAF
KMKL 290530Z 2906/3006 11003KT P6SM BKN250
     FM290700 00000KT 5SM BR BKN010
      TEMPO 2909/2913 3SM BR OVC005
     FM291400 18005KT P6SM SCT005 OVC035
     FM291600 20006KT P6SM VCTS BKN035CB
     FM300000 VRB03KT P6SM BKN250=



000
FTUS44 KMEG 290530
TAFMEM
TAF
KMEM 290530Z 2906/3006 14004KT P6SM SCT005 BKN250
      TEMPO 2909/2913 5SM BR OVC005
     FM291400 19006KT P6SM SCT005 OVC070
     FM291600 17007KT P6SM VCTS BKN035CB
     FM300000 16008KT P6SM OVC250=



000
FTUS44 KMEG 290530
TAFJBR
TAF
KJBR 290530Z 2906/3006 16006KT P6SM SCT007 BKN250
      TEMPO 2909/2913 5SM BR OVC007
     FM291400 19006KT P6SM SCT007 BKN250
     FM291600 20008KT P6SM VCTS BKN035CB
     FM300000 17006KT P6SM OVC250=



000
FTUS44 KMEG 290530
TAFTUP
TAF
KTUP 290530Z 2906/3006 10005KT P6SM BKN250
     FM290800 18004KT 5SM BR OVC008
      TEMPO 2909/2913 3SM BR OVC005
     FM291400 16005KT P6SM SCT005 BKN250
     FM291700 17007KT P6SM VCTS BKN035CB
     FM300000 18005KT P6SM BKN250=



000
FTUS44 KMEG 290530
TAFMKL
TAF
KMKL 290530Z 2906/3006 11003KT P6SM BKN250
     FM290700 00000KT 5SM BR BKN010
      TEMPO 2909/2913 3SM BR OVC005
     FM291400 18005KT P6SM SCT005 OVC035
     FM291600 20006KT P6SM VCTS BKN035CB
     FM300000 VRB03KT P6SM BKN250=



000
FTUS44 KMEG 290530
TAFMEM
TAF
KMEM 290530Z 2906/3006 14004KT P6SM SCT005 BKN250
      TEMPO 2909/2913 5SM BR OVC005
     FM291400 19006KT P6SM SCT005 OVC070
     FM291600 17007KT P6SM VCTS BKN035CB
     FM300000 16008KT P6SM OVC250=



000
FTUS44 KMEG 290259 AAA
TAFMEM
TAF AMD
KMEM 290259Z 2903/2924 14005KT P6SM FEW250
     FM290600 14004KT P6SM SCT005 BKN250
      TEMPO 2909/2913 5SM BR OVC005
     FM291400 19006KT P6SM SCT005 OVC070
     FM291600 17007KT P6SM VCTS BKN035CB=



000
FTUS44 KMEG 282327
TAFTUP
TAF
KTUP 282327Z 2900/2924 10005KT P6SM SCT035
     FM290800 18004KT 5SM BR OVC008
      TEMPO 2909/2913 3SM BR OVC005
     FM291400 16005KT P6SM SCT005 BKN012
     FM291700 17007KT P6SM VCTS BKN035CB=



000
FTUS44 KMEG 282327
TAFMEM
TAF
KMEM 282327Z 2900/2924 13005KT P6SM SCT040 BKN250
     FM290600 14004KT P6SM SCT005 BKN250
      TEMPO 2909/2913 5SM BR OVC005
     FM291400 19006KT P6SM SCT005 OVC070
     FM291600 17007KT P6SM VCTS BKN035CB=



000
FTUS44 KMEG 282327
TAFJBR
TAF
KJBR 282327Z 2900/2924 15005KT P6SM SCT035
     FM290200 14004KT P6SM BKN100
     FM290600 14004KT P6SM SCT007 BKN250
      TEMPO 2909/2913 5SM BR OVC007
     FM291400 16005KT P6SM SCT007 BKN025
     FM291600 18009KT P6SM VCTS BKN035CB=



000
FTUS44 KMEG 282327
TAFMKL
TAF
KMKL 282327Z 2900/2924 15006KT P6SM SCT150
     FM290100 11003KT P6SM SCT040 BKN150
     FM290700 00000KT 5SM BR BKN010
      TEMPO 2909/2913 3SM BR OVC005
     FM291400 18005KT P6SM SCT005 OVC035
     FM291600 20006KT P6SM VCTS BKN035CB=



000
FTUS44 KMEG 282327
TAFJBR
TAF
KJBR 282327Z 2900/2924 15005KT P6SM SCT035
     FM290200 14004KT P6SM BKN100
     FM290600 14004KT P6SM SCT007 BKN250
      TEMPO 2909/2913 5SM BR OVC007
     FM291400 16005KT P6SM SCT007 BKN025
     FM291600 18009KT P6SM VCTS BKN035CB=



000
FTUS44 KMEG 282327
TAFMEM
TAF
KMEM 282327Z 2900/2924 13005KT P6SM SCT040 BKN250
     FM290600 14004KT P6SM SCT005 BKN250
      TEMPO 2909/2913 5SM BR OVC005
     FM291400 19006KT P6SM SCT005 OVC070
     FM291600 17007KT P6SM VCTS BKN035CB=



000
FTUS44 KMEG 282327
TAFTUP
TAF
KTUP 282327Z 2900/2924 10005KT P6SM SCT035
     FM290800 18004KT 5SM BR OVC008
      TEMPO 2909/2913 3SM BR OVC005
     FM291400 16005KT P6SM SCT005 BKN012
     FM291700 17007KT P6SM VCTS BKN035CB=



000
FTUS44 KMEG 282327
TAFMKL
TAF
KMKL 282327Z 2900/2924 15006KT P6SM SCT150
     FM290100 11003KT P6SM SCT040 BKN150
     FM290700 00000KT 5SM BR BKN010
      TEMPO 2909/2913 3SM BR OVC005
     FM291400 18005KT P6SM SCT005 OVC035
     FM291600 20006KT P6SM VCTS BKN035CB=



000
FTUS44 KMEG 282056 AAA
TAFMEM
TAF AMD
KMEM 282056Z 2821/2918 14006KT P6SM BKN040
     FM290000 15005KT P6SM VCTS SCT040CB SCT250
     FM290200 14004KT P6SM BKN100
     FM290600 14004KT P6SM SCT005 BKN250
      TEMPO 2909/2913 5SM BR OVC005
     FM291400 16005KT P6SM SCT005 BKN012
     FM291600 17007KT P6SM VCTS BKN025CB=



000
FTUS44 KMEG 282043 AAA
TAFJBR
TAF AMD
KJBR 282043Z 2821/2918 13007KT P6SM SCT025 BKN035
     FM282300 15005KT P6SM VCTS SCT040CB SCT250
      TEMPO 2823/2901 3SM TSRA BKN015CB
     FM290200 14004KT P6SM BKN100
     FM290600 14004KT P6SM SCT007 BKN250
      TEMPO 2909/2913 5SM BR OVC007
     FM291400 16005KT P6SM SCT007 BKN012
     FM291600 18009KT P6SM VCTS BKN025CB=



000
FTUS44 KMEG 282043 AAA
TAFJBR
TAF AMD
KJBR 282043Z 2821/2918 13007KT P6SM SCT025 BKN035
     FM282300 15005KT P6SM VCTS SCT040CB SCT250
      TEMPO 2823/2901 3SM TSRA BKN015CB
     FM290200 14004KT P6SM BKN100
     FM290600 14004KT P6SM SCT007 BKN250
      TEMPO 2909/2913 5SM BR OVC007
     FM291400 16005KT P6SM SCT007 BKN012
     FM291600 18009KT P6SM VCTS BKN025CB=



000
FTUS44 KMEG 281733
TAFJBR
TAF
KJBR 281733Z 2818/2918 14005KT P6SM SCT025 BKN035
     FM282300 15005KT P6SM VCTS SCT040CB SCT250
     FM290200 14004KT P6SM BKN100
     FM290600 14004KT P6SM SCT007 BKN250
      TEMPO 2909/2913 5SM BR OVC007
     FM291400 16005KT P6SM SCT007 BKN012
     FM291600 18009KT P6SM VCTS BKN025CB=



000
FTUS44 KMEG 281733
TAFTUP
TAF
KTUP 281733Z 2818/2918 15005KT P6SM SCT015 BKN025
     FM282000 17005KT P6SM VCTS SCT025CB BKN035
     FM290000 16003KT P6SM SCT035 BKN100
     FM290800 18004KT 5SM BR OVC008
      TEMPO 2909/2913 3SM BR OVC005
     FM291400 16005KT P6SM SCT005 BKN012
     FM291600 17007KT P6SM VCTS BKN025CB=



000
FTUS44 KMEG 281733
TAFMKL
TAF
KMKL 281733Z 2818/2918 16006KT P6SM BKN015 OVC025
     FM281900 15006KT P6SM SCT025 BKN035
     FM290100 11003KT P6SM SCT040 BKN150
     FM290700 00000KT 5SM BR BKN010
      TEMPO 2909/2913 3SM BR OVC005
     FM291400 16005KT P6SM SCT005 BKN012
     FM291600 17007KT P6SM VCTS BKN025CB=



000
FTUS44 KMEG 281733
TAFMEM
TAF
KMEM 281733Z 2818/2918 14006KT P6SM BKN025
     FM281900 14006KT P6SM BKN035
     FM290000 15005KT P6SM VCTS SCT040CB SCT250
     FM290200 14004KT P6SM BKN100
     FM290600 14004KT P6SM SCT005 BKN250
      TEMPO 2909/2913 5SM BR OVC005
     FM291400 16005KT P6SM SCT005 BKN012
     FM291600 17007KT P6SM VCTS BKN025CB=



000
FTUS44 KMEG 281458 AAA
TAFMEM
TAF AMD
KMEM 281458Z 2815/2912 14007KT P6SM BKN019
     FM281900 15007KT P6SM SCT030 BKN250
     FM290000 13006KT P6SM BKN250=



000
FTUS44 KMEG 281458 AAA
TAFMEM
TAF AMD
KMEM 281458Z 2815/2912 14007KT P6SM BKN019
     FM281900 15007KT P6SM SCT030 BKN250
     FM290000 13006KT P6SM BKN250=



000
FTUS44 KMEG 281347 AAA
TAFTUP
TAF AMD
KTUP 281347Z 2814/2912 00000KT P6SM OVC012
     FM281600 15005KT P6SM OVC025
     FM282000 17005KT P6SM VCTS SCT035CB
     FM290000 16003KT P6SM OVC030
     FM290800 18004KT 4SM BR OVC008=



000
FTUS44 KMEG 281346 AAA
TAFJBR
TAF AMD
KJBR 281346Z 2814/2912 11005KT P6SM SCT008 BKN016
     FM281700 14005KT P6SM BKN035
     FM290000 13004KT P6SM BKN250=



000
FTUS44 KMEG 281345 CCA
TAFMKL
TAF COR
KMKL 281345Z 2814/2912 11004KT 3SM BR BKN003 OVC018
     FM281500 12004KT 5SM BR SCT007 BKN018
     FM281600 16005KT P6SM BKN035
     FM290000 11003KT P6SM BKN250
     FM290700 00000KT 5SM BR BKN010=



000
FTUS44 KMEG 281345 CCA
TAFMKL
TAF COR
KMKL 281345Z 2814/2912 11004KT 3SM BR BKN003 OVC018
     FM281500 12004KT 5SM BR SCT007 BKN018
     FM281600 16005KT P6SM BKN035
     FM290000 11003KT P6SM BKN250
     FM290700 00000KT 5SM BR BKN010=



000
FTUS44 KMEG 281344 AAA
TAFMKL
TAF AMD
KMKL 281344Z 2814/2912 11004KT 3SM BR BKN003 OVC018
     FM281500 12004KT 5SM BR SCT007 BKN018
     FM281600 16005KT P6SM BKN035
     FM290000 11003KT P6SM BKN250
     FM290700 00000KT 5SM BR BKN010
      AMD NOT SKED=



000
FTUS44 KMEG 281344 AAA
TAFMKL
TAF AMD
KMKL 281344Z 2814/2912 11004KT 3SM BR BKN003 OVC018
     FM281500 12004KT 5SM BR SCT007 BKN018
     FM281600 16005KT P6SM BKN035
     FM290000 11003KT P6SM BKN250
     FM290700 00000KT 5SM BR BKN010
      AMD NOT SKED=



000
FTUS44 KMEG 281133 CCA
TAFTUP
TAF COR
KTUP 281133Z 2812/2912 00000KT 6SM BR SCT003 OVC015
      TEMPO 2812/2814 1SM BR BKN003
     FM281700 15005KT P6SM OVC025
     FM282000 17005KT P6SM VCTS SCT035CB
     FM290000 16003KT P6SM OVC030
     FM290800 18004KT 4SM BR OVC008=



000
FTUS44 KMEG 281129
TAFMEM
TAF
KMEM 281129Z 2812/2912 14004KT P6SM SCT007 OVC018
      TEMPO 2812/2813 BKN007 OVC018
     FM281400 11004KT P6SM BKN020
     FM281600 11004KT P6SM BKN035
     FM281900 14004KT P6SM SCT040 BKN250
     FM290000 13006KT P6SM BKN250=



000
FTUS44 KMEG 281129
TAFJBR
TAF
KJBR 281129Z 2812/2912 VRB03KT P6SM BKN007 OVC020
      TEMPO 2812/2814 2SM BR OVC007
     FM281700 14005KT P6SM BKN035
     FM290000 13004KT P6SM BKN250=



000
FTUS44 KMEG 281129
TAFTUP
TAF
KTUP 281129Z 2812/2912 00000KT 6SM BR SCT003 OVC015
      TEMPO 2812/2814 1SM BR BKN003
     FM281700 15005KT P6SM OVC025
     FM282000 17005KT P6SM VCTS SCT035CB
      TEMPO 2820/2824 4SM -TSRA BKN035CB
     FM290100 16003KT P6SM OVC030
     FM290800 18004KT 4SM BR OVC008=



000
FTUS44 KMEG 281129
TAFMEM
TAF
KMEM 281129Z 2812/2912 14004KT P6SM SCT007 OVC018
      TEMPO 2812/2813 BKN007 OVC018
     FM281400 11004KT P6SM BKN020
     FM281600 11004KT P6SM BKN035
     FM281900 14004KT P6SM SCT040 BKN250
     FM290000 13006KT P6SM BKN250=



000
FTUS44 KMEG 281129
TAFMKL
TAF
KMKL 281129Z 2812/2912 00000KT 5SM BR SCT002 BKN018
      TEMPO 2812/2813 1/2SM FG VV002
     FM281600 16005KT P6SM BKN035
     FM290000 11003KT P6SM BKN250
     FM290700 00000KT 5SM BR BKN010
      AMD NOT SKED=



000
FTUS44 KMEG 281129
TAFTUP
TAF
KTUP 281129Z 2812/2912 00000KT 6SM BR SCT003 OVC015
      TEMPO 2812/2814 1SM BR BKN003
     FM281700 15005KT P6SM OVC025
     FM282000 17005KT P6SM VCTS SCT035CB
      TEMPO 2820/2824 4SM -TSRA BKN035CB
     FM290100 16003KT P6SM OVC030
     FM290800 18004KT 4SM BR OVC008=



000
FTUS44 KMEG 281129
TAFJBR
TAF
KJBR 281129Z 2812/2912 VRB03KT P6SM BKN007 OVC020
      TEMPO 2812/2814 2SM BR OVC007
     FM281700 14005KT P6SM BKN035
     FM290000 13004KT P6SM BKN250=



000
FTUS44 KMEG 281129
TAFMKL
TAF
KMKL 281129Z 2812/2912 00000KT 5SM BR SCT002 BKN018
      TEMPO 2812/2813 1/2SM FG VV002
     FM281600 16005KT P6SM BKN035
     FM290000 11003KT P6SM BKN250
     FM290700 00000KT 5SM BR BKN010
      AMD NOT SKED=



000
FTUS44 KMEG 281035 AAA
TAFJBR
TAF AMD
KJBR 281035Z 2811/2906 VRB03KT P6SM BKN007 OVC015
      TEMPO 2811/2814 2SM BR OVC007
     FM281500 14005KT P6SM SCT120
     FM290000 13004KT P6SM SCT250=



000
FTUS44 KMEG 281031 AAB
TAFMEM
TAF AMD
KMEM 281031Z 2811/2906 14004KT P6SM SCT007 OVC015
      TEMPO 2811/2813 BKN007 OVC015
     FM281400 11005KT P6SM BKN015
     FM281600 11005KT P6SM BKN025
     FM281900 17007KT P6SM SCT040 BKN250
     FM290000 13006KT P6SM BKN250=



000
FTUS44 KMEG 280913 AAA
TAFMEM
TAF AMD
KMEM 280913Z 2809/2906 14004KT P6SM SCT007 SCT250
      TEMPO 2809/2810 BKN007
     FM281000 12003KT P6SM BKN005 BKN250
      TEMPO 2812/2814 SCT005
     FM281400 11005KT P6SM BKN015
     FM281600 11005KT P6SM BKN025
     FM281900 17007KT P6SM SCT040 BKN250
     FM290000 13006KT P6SM BKN250=



000
FTUS44 KMEG 280904 AAA
TAFMKL
TAF AMD
KMKL 280904Z 2809/2906 00000KT P6SM SCT250
      TEMPO 2809/2813 1/2SM FG VV002
     FM281300 00000KT 1SM BR BKN250
     FM281500 16005KT P6SM BKN050
     FM290000 00000KT P6SM OVC050
      AMD NOT SKED=



000
FTUS44 KMEG 280538
TAFMEM
TAF
KMEM 280538Z 2806/2906 16006KT P6SM SCT009 SCT250
      TEMPO 2806/2810 BKN009
     FM281000 00000KT P6SM SCT005 BKN250
      TEMPO 2810/2814 BKN003
     FM281400 14006KT P6SM BKN025
     FM281900 17007KT P6SM BKN040
     FM290000 13006KT P6SM BKN250=



000
FTUS44 KMEG 280538
TAFTUP
TAF
KTUP 280538Z 2806/2906 20005KT P6SM SCT009
     FM280900 00000KT 5SM BR OVC004
      TEMPO 2810/2814 1SM BR BKN003
     FM281500 17005KT P6SM OVC009
     FM281700 15005KT P6SM OVC015
      TEMPO 2821/2901 4SM -TSRA OVC007CB
     FM290200 16005KT P6SM OVC015=



000
FTUS44 KMEG 280538
TAFMKL
TAF
KMKL 280538Z 2806/2906 00000KT P6SM SCT250
      TEMPO 2807/2811 1/2SM FG VV002
     FM281100 00000KT 1SM BR BKN250
     FM281500 16005KT P6SM BKN050
     FM290000 00000KT P6SM OVC050=



000
FTUS44 KMEG 280538
TAFJBR
TAF
KJBR 280538Z 2806/2906 17003KT P6SM SCT250
     FM280900 VRB03KT 3SM BR SCT250
      TEMPO 2810/2814 1/2SM FG VV002
     FM281500 14005KT P6SM SCT120
     FM290000 13004KT P6SM SCT250=



000
FTUS44 KMEG 280300 AAA
TAFTUP
TAF AMD
KTUP 280300Z 2803/2824 VRB04KT P6SM SCT007 SCT250
      TEMPO 2803/2806 BKN007
     FM280900 00000KT 5SM BR BKN005
      TEMPO 2810/2813 1SM BR BKN003
     FM281500 17005KT P6SM BKN050=



000
FTUS44 KMEG 280259 AAA
TAFMEM
TAF AMD
KMEM 280259Z 2803/2824 16004KT P6SM FEW030 BKN250
     FM281100 16004KT 5SM BR BKN005
      TEMPO 2812/2814 BKN003
     FM281400 16008KT P6SM BKN050=



000
FTUS44 KMEG 272326
TAFMEM
TAF
KMEM 272326Z 2800/2824 19005KT P6SM SCT150 OVC250
     FM280200 16004KT P6SM FEW150 SCT250
     FM281100 16004KT 5SM BR BKN005
      TEMPO 2812/2814 BKN003
     FM281400 16008KT P6SM BKN050=



000
FTUS44 KMEG 272326
TAFMKL
TAF
KMKL 272326Z 2800/2824 16004KT P6SM SCT050 BKN250
     FM280200 VRB03KT 6SM BR FEW050 SCT250
     FM280800 00000KT 2SM BR BKN004
      TEMPO 2810/2813 1/2SM FG VV002
     FM281500 16005KT P6SM BKN050=



000
FTUS44 KMEG 272326
TAFTUP
TAF
KTUP 272326Z 2800/2824 17005KT P6SM VCSH SCT050 BKN100
     FM280300 VRB02KT P6SM FEW050 SCT250
     FM280900 00000KT 5SM BR BKN005
      TEMPO 2810/2813 1SM BR BKN003
     FM281500 17005KT P6SM BKN050=



000
FTUS44 KMEG 272326
TAFJBR
TAF
KJBR 272326Z 2800/2824 19004KT P6SM BKN250
     FM280200 17003KT P6SM FEW050 SCT250
     FM280900 VRB03KT 2SM BR BKN004
      TEMPO 2811/2813 1/2SM FG VV002
     FM281500 15005KT P6SM BKN250=



000
FTUS44 KMEG 272326
TAFMEM
TAF
KMEM 272326Z 2800/2824 19005KT P6SM SCT150 OVC250
     FM280200 16004KT P6SM FEW150 SCT250
     FM281100 16004KT 5SM BR BKN005
      TEMPO 2812/2814 BKN003
     FM281400 16008KT P6SM BKN050=



000
FTUS44 KMEG 272326
TAFJBR
TAF
KJBR 272326Z 2800/2824 19004KT P6SM BKN250
     FM280200 17003KT P6SM FEW050 SCT250
     FM280900 VRB03KT 2SM BR BKN004
      TEMPO 2811/2813 1/2SM FG VV002
     FM281500 15005KT P6SM BKN250=



000
FTUS44 KMEG 272326
TAFMKL
TAF
KMKL 272326Z 2800/2824 16004KT P6SM SCT050 BKN250
     FM280200 VRB03KT 6SM BR FEW050 SCT250
     FM280800 00000KT 2SM BR BKN004
      TEMPO 2810/2813 1/2SM FG VV002
     FM281500 16005KT P6SM BKN050=



000
FTUS44 KMEG 272326
TAFTUP
TAF
KTUP 272326Z 2800/2824 17005KT P6SM VCSH SCT050 BKN100
     FM280300 VRB02KT P6SM FEW050 SCT250
     FM280900 00000KT 5SM BR BKN005
      TEMPO 2810/2813 1SM BR BKN003
     FM281500 17005KT P6SM BKN050=



000
FTUS44 KMEG 271720
TAFTUP
TAF
KTUP 271720Z 2718/2818 17008KT P6SM VCTS BKN050CB OVC150
      TEMPO 2718/2721 VRB10G20KT 2SM TSRA OVC015CB
     FM272300 17005KT P6SM VCSH SCT050 BKN150
     FM280300 VRB02KT P6SM FEW050 SCT250
     FM280900 00000KT 5SM BR BKN005
      TEMPO 2810/2813 1SM BR BKN003
     FM281500 17005KT 6SM BR BKN012 BKN250=



000
FTUS44 KMEG 271720
TAFMKL
TAF
KMKL 271720Z 2718/2818 21008KT P6SM VCSH SCT050 OVC150
      TEMPO 2718/2721 3SM TSRA BKN050CB
     FM272300 17006KT P6SM SCT050 BKN250
     FM280200 VRB03KT 6SM BR FEW050 SCT250
     FM280800 00000KT 2SM BR BKN004
      TEMPO 2810/2813 1/2SM FG VV002
     FM281500 16005KT 5SM BR BKN010 BKN250=



000
FTUS44 KMEG 271720
TAFJBR
TAF
KJBR 271720Z 2718/2818 16008KT P6SM VCSH SCT050 BKN150
     FM272300 19003KT P6SM SCT050 BKN250
     FM280200 17003KT P6SM FEW050 SCT250
     FM280900 VRB03KT 2SM BR BKN004
      TEMPO 2811/2813 1/2SM FG VV002
     FM281500 15005KT 6SM BR BKN010 BKN250=



000
FTUS44 KMEG 271720
TAFTUP
TAF
KTUP 271720Z 2718/2818 17008KT P6SM VCTS BKN050CB OVC150
      TEMPO 2718/2721 VRB10G20KT 2SM TSRA OVC015CB
     FM272300 17005KT P6SM VCSH SCT050 BKN150
     FM280300 VRB02KT P6SM FEW050 SCT250
     FM280900 00000KT 5SM BR BKN005
      TEMPO 2810/2813 1SM BR BKN003
     FM281500 17005KT 6SM BR BKN012 BKN250=



000
FTUS44 KMEG 271720
TAFMEM
TAF
KMEM 271720Z 2718/2818 21008KT P6SM VCSH SCT050 OVC150
      TEMPO 2718/2720 -SHRA BKN050
     FM272200 17007KT P6SM SCT050 BKN250
     FM280200 16004KT P6SM FEW150 SCT250
     FM281100 16004KT 5SM BR BKN005
      TEMPO 2812/2814 BKN003
     FM281500 16008KT P6SM BKN012 BKN250=



000
FTUS44 KMEG 271720
TAFMKL
TAF
KMKL 271720Z 2718/2818 21008KT P6SM VCSH SCT050 OVC150
      TEMPO 2718/2721 3SM TSRA BKN050CB
     FM272300 17006KT P6SM SCT050 BKN250
     FM280200 VRB03KT 6SM BR FEW050 SCT250
     FM280800 00000KT 2SM BR BKN004
      TEMPO 2810/2813 1/2SM FG VV002
     FM281500 16005KT 5SM BR BKN010 BKN250=



000
FTUS44 KMEG 271720
TAFMEM
TAF
KMEM 271720Z 2718/2818 21008KT P6SM VCSH SCT050 OVC150
      TEMPO 2718/2720 -SHRA BKN050
     FM272200 17007KT P6SM SCT050 BKN250
     FM280200 16004KT P6SM FEW150 SCT250
     FM281100 16004KT 5SM BR BKN005
      TEMPO 2812/2814 BKN003
     FM281500 16008KT P6SM BKN012 BKN250=



000
FTUS44 KMEG 271558 AAB
TAFJBR
TAF AMD
KJBR 271558Z 2716/2812 21010G15KT 6SM -TSRA BKN040CB OVC150
      TEMPO 2716/2717 VRB15G25KT 1SM +TSRA BKN010CB
     FM271700 23010KT P6SM VCSH BKN040 OVC100
     FM272300 19003KT P6SM SCT050 BKN150
     FM280200 17002KT P6SM FEW250
      TEMPO 2810/2812 4SM BR=



000
FTUS44 KMEG 271503 AAA
TAFMKL
TAF AMD
KMKL 271503Z 2715/2812 21008KT P6SM VCTS BKN040CB OVC100
      TEMPO 2715/2718 VRB10G20KT 5SM -TSRA OVC040CB
     FM271800 22010KT P6SM VCTS BKN040CB OVC100
     FM280000 18003KT P6SM SCT050 BKN150
     FM280600 00000KT 6SM BR SCT250
      TEMPO 2808/2812 1SM BCFG=



000
FTUS44 KMEG 271501 AAB
TAFMEM
TAF AMD
KMEM 271501Z 2715/2812 21010KT P6SM -SHRA VCTS SCT040CB OVC100
      TEMPO 2715/2718 VRB10G20KT 5SM -TSRA BKN040CB
     FM271800 22008KT P6SM VCSH BKN040 BKN100
     FM272200 18007KT P6SM SCT050 BKN150
     FM280200 17004KT P6SM BKN250=



000
FTUS44 KMEG 271405 AAA
TAFMEM
TAF AMD
KMEM 271405Z 2714/2812 21010KT P6SM VCTS SCT040CB OVC100
      TEMPO 2714/2718 4SM SHRA BKN040
     FM271800 22008KT P6SM VCSH BKN040 BKN100
     FM272200 18007KT P6SM SCT050 BKN150
     FM280200 17004KT P6SM BKN250=



000
FTUS44 KMEG 271405 AAA
TAFMEM
TAF AMD
KMEM 271405Z 2714/2812 21010KT P6SM VCTS SCT040CB OVC100
      TEMPO 2714/2718 4SM SHRA BKN040
     FM271800 22008KT P6SM VCSH BKN040 BKN100
     FM272200 18007KT P6SM SCT050 BKN150
     FM280200 17004KT P6SM BKN250=



000
FTUS44 KMEG 271402 AAA
TAFJBR
TAF AMD
KJBR 271402Z 2714/2812 23010KT P6SM VCTS SCT040CB BKN150
      TEMPO 2714/2717 4SM -SHRA BKN040
     FM271700 23010KT P6SM VCSH BKN040 OVC100
     FM272300 19003KT P6SM SCT050 BKN150
     FM280200 17002KT P6SM FEW250
      TEMPO 2810/2812 4SM BR=



000
FTUS44 KMEG 271135
TAFTUP
TAF
KTUP 271135Z 2712/2812 20003KT P6SM FEW003 SCT250
      TEMPO 2712/2714 6SM BR OVC003
     FM271400 21005KT P6SM VCSH SCT015 OVC100
      TEMPO 2714/2716 BKN015
     FM271600 21006KT P6SM VCTS BKN035CB OVC100
     FM272300 19004KT P6SM SCT040 BKN150
     FM280300 VRB02KT P6SM FEW250
      TEMPO 2809/2812 3SM BR=



000
FTUS44 KMEG 271135
TAFJBR
TAF
KJBR 271135Z 2712/2812 22010KT P6SM FEW100 BKN250
      TEMPO 2712/2713 4SM BR SCT004 OVC100
     FM271700 23010KT P6SM VCTS BKN040CB OVC100
     FM272300 19003KT P6SM SCT050 BKN150
     FM280200 17002KT P6SM FEW250
      TEMPO 2810/2812 4SM BR=



000
FTUS44 KMEG 271135
TAFMEM
TAF
KMEM 271135Z 2712/2812 21007KT P6SM SCT150
     FM271700 22008KT P6SM VCTS BKN040CB OVC100
     FM272200 18007KT P6SM SCT050 BKN150
     FM280200 17004KT P6SM BKN250=



000
FTUS44 KMEG 271135
TAFMKL
TAF
KMKL 271135Z 2712/2812 20004KT P6SM SCT004 SCT150 BKN250
     FM271500 21008KT P6SM SCT020 BKN100
     FM271700 22010KT P6SM VCTS BKN040CB OVC100
     FM280000 18003KT P6SM SCT050 BKN150
     FM280600 00000KT 6SM BR SCT250
      TEMPO 2808/2812 1SM BCFG=



000
FTUS44 KMEG 271108 AAB
TAFMEM
TAF AMD
KMEM 271108Z 2711/2806 20007KT P6SM SCT150
     FM271700 22010KT P6SM VCTS BKN040CB OVC100
     FM280000 18005KT P6SM SCT050 BKN150=



000
FTUS44 KMEG 271040 AAA
TAFTUP
TAF AMD
KTUP 271040Z 2711/2806 20003KT P6SM FEW003 SCT250
      TEMPO 2711/2713 6SM BR BKN003
     FM271300 21005KT P6SM VCSH SCT015 OVC100
      TEMPO 2713/2715 BKN015
     FM271600 21006KT P6SM VCTS BKN035CB OVC100
     FM272300 19004KT P6SM SCT040 BKN150=



000
FTUS44 KMEG 270906 AAA
TAFMEM
TAF AMD
KMEM 270906Z 2709/2806 20007KT P6SM BKN150
     FM271300 21008KT P6SM SCT025 BKN100
     FM271700 22010KT P6SM VCTS BKN040CB OVC100
     FM280000 18005KT P6SM SCT050 BKN150=



000
FTUS44 KMEG 270906 AAA
TAFMEM
TAF AMD
KMEM 270906Z 2709/2806 20007KT P6SM BKN150
     FM271300 21008KT P6SM SCT025 BKN100
     FM271700 22010KT P6SM VCTS BKN040CB OVC100
     FM280000 18005KT P6SM SCT050 BKN150=



000
FTUS44 KMEG 270535
TAFMEM
TAF
KMEM 270535Z 2706/2806 19005KT P6SM SCT250
     FM271300 21008KT P6SM SCT025 BKN100
     FM271700 22010KT P6SM VCTS BKN040CB OVC100
     FM280000 18005KT P6SM SCT050 BKN150=



000
FTUS44 KMEG 270535
TAFTUP
TAF
KTUP 270535Z 2706/2806 20003KT P6SM SCT250
     FM270900 20003KT 6SM BR FEW009 SCT250
     FM271100 21005KT P6SM VCSH SCT015 OVC100
      TEMPO 2711/2715 BKN015
     FM271600 21006KT P6SM VCTS BKN035CB OVC100
     FM272300 19004KT P6SM SCT040 BKN150=



000
FTUS44 KMEG 270535
TAFMKL
TAF
KMKL 270535Z 2706/2806 20004KT P6SM SCT250
     FM271300 21008KT P6SM SCT020 BKN100
     FM271700 22010KT P6SM VCTS BKN040CB OVC100
     FM280000 18003KT P6SM SCT050 BKN150=



000
FTUS44 KMEG 270535
TAFJBR
TAF
KJBR 270535Z 2706/2806 20005KT P6SM SCT250
     FM271300 22010KT P6SM SCT020 BKN100
     FM271700 23010KT P6SM VCTS BKN040CB OVC100
     FM280000 19003KT P6SM SCT050 BKN150=



000
FTUS44 KMEG 270305 AAA
TAFMEM
TAF AMD
KMEM 270305Z 2703/2724 20005KT P6SM FEW040 SCT250
     FM270800 20006KT P6SM FEW009 SCT250
     FM271300 21008KT P6SM SCT015 BKN100
     FM271800 22010KT P6SM SCT040 BKN100
     FM272100 22010KT P6SM VCTS BKN040CB OVC100=



000
FTUS44 KMEG 262344
TAFTUP
TAF
KTUP 262344Z 2700/2724 22006KT P6SM SCT035 BKN250
     FM270800 20004KT 6SM BR FEW009 SCT250
     FM271400 22006KT P6SM VCSH BKN015 OVC100
     FM271800 23006KT P6SM SCT030 BKN100
     FM272100 23006KT P6SM VCTS SCT035CB BKN100=



000
FTUS44 KMEG 262344
TAFMKL
TAF
KMKL 262344Z 2700/2724 20007KT P6SM FEW040 SCT250
     FM270800 20005KT P6SM FEW009 SCT250
     FM271300 22010KT P6SM SCT015 BKN100
     FM271900 22010KT P6SM SCT040 BKN100
     FM272100 22010KT P6SM VCTS BKN040CB OVC100=



000
FTUS44 KMEG 262344
TAFJBR
TAF
KJBR 262344Z 2700/2724 20009KT P6SM SCT035 SCT250
     FM270800 21006KT P6SM FEW009 BKN150
     FM271300 22010KT P6SM SCT015 BKN100
     FM271800 23010KT P6SM SCT040 BKN100
     FM272100 23010KT P6SM VCTS SCT040CB BKN100=



000
FTUS44 KMEG 262344
TAFMEM
TAF
KMEM 262344Z 2700/2724 21007KT P6SM FEW040 SCT250
     FM270800 20006KT P6SM FEW009 SCT250
     FM271300 21008KT P6SM SCT015 BKN100
     FM271800 22010KT P6SM SCT040 BKN100
     FM272100 22010KT P6SM VCTS BKN040CB OVC100=



000
FTUS44 KMEG 262344
TAFMEM
TAF
KMEM 262344Z 2700/2724 21007KT P6SM FEW040 SCT250
     FM270800 20006KT P6SM FEW009 SCT250
     FM271300 21008KT P6SM SCT015 BKN100
     FM271800 22010KT P6SM SCT040 BKN100
     FM272100 22010KT P6SM VCTS BKN040CB OVC100=



000
FTUS44 KMEG 262344
TAFTUP
TAF
KTUP 262344Z 2700/2724 22006KT P6SM SCT035 BKN250
     FM270800 20004KT 6SM BR FEW009 SCT250
     FM271400 22006KT P6SM VCSH BKN015 OVC100
     FM271800 23006KT P6SM SCT030 BKN100
     FM272100 23006KT P6SM VCTS SCT035CB BKN100=



000
FTUS44 KMEG 262344
TAFJBR
TAF
KJBR 262344Z 2700/2724 20009KT P6SM SCT035 SCT250
     FM270800 21006KT P6SM FEW009 BKN150
     FM271300 22010KT P6SM SCT015 BKN100
     FM271800 23010KT P6SM SCT040 BKN100
     FM272100 23010KT P6SM VCTS SCT040CB BKN100=



000
FTUS44 KMEG 262344
TAFMKL
TAF
KMKL 262344Z 2700/2724 20007KT P6SM FEW040 SCT250
     FM270800 20005KT P6SM FEW009 SCT250
     FM271300 22010KT P6SM SCT015 BKN100
     FM271900 22010KT P6SM SCT040 BKN100
     FM272100 22010KT P6SM VCTS BKN040CB OVC100=



000
FTUS44 KMEG 262056 AAA
TAFMEM
TAF AMD
KMEM 262056Z 2621/2718 22012G18KT P6SM SCT040 BKN250
     FM270000 21008KT P6SM FEW040 FEW250
     FM270800 20006KT P6SM FEW009 SCT250
     FM271400 21010KT P6SM SCT012 BKN060=



    US Dept of Commerce
    National Oceanic and Atmospheric Administration
    National Weather Service
    1325 East West Highway
    Silver Spring, MD 20910
    Page Author: NWS Internet Services Team
Disclaimer
Information Quality
Credits
Glossary
Privacy Policy
Freedom of Information Act (FOIA)
About Us
Career Opportunities